Terminal Aerodrome Forecast
Issued by NWS

Home | Current Version | Previous Version | Text Only | Print | Product List | Glossary On
Versions: 1 2 3 4 5 6 7 8 9 10 11 12 13
000
FTUS42 TJSJ 231700
TAFJBQ
TAF
TJBQ 231732Z 2318/2418 05007KT P6SM VCTS SCT025CB BKN040
      TEMPO 2318/2321 VRB12G20KT 2SM +TSRA OVC025CB
     FM232300 09006KT P6SM SCT025 SCT060 SCT120
     FM241400 07013KT P6SM SCT025
      AMD NOT SKED 2402/2411=

USA.gov is the U.S. government's official web portal to all federal, state and local government web resources and services.